Kezdőlap
METAR-TAF:

METAR-TAF

Repülőterek :

Auckland, Új-Zéland

földrajzi szélesség: 37-01S, földrajzi hosszúság: 174-48E, magasság: 7 m

Jelenlegi meteorológiai megfigyelések

A jelentés 15 perccel ezelõtt készült, 10:30 UTC
Északi szél 4 kt, nyugat-északnyugati és észak-északkeleti között változik
Hőmérséklet 10°C
Páratartalom 93%
Légköri nyomás 1013 hPa
Látótávolság 10 km, vagy több
enyhe esõ

METAR: NZAA 161030Z AUTO 35004KT 290V020 9999 -RA FEW037/// 10/09 Q1013 NOSIG

Idő: 22:45 (10:45 UTC)

Előrejelzés

A jelentés 5 órával és 26 perccel ezelõtt készült, 05:19 UTC
Az előrejelzés 16-én 06 óra UTC és 17-én 06 óra UTC között érvényes
Nyugati szél 8 kt
Látótávolság 10 km, vagy több
Szórványos felhőzet 3000 lábon
enyhe záporok

TAF: NZAA 160519Z 1606/1706 26008KT 9999 -SHRA SCT030

Meteorológiai megfigyelések és előrejelzések több, mint 4000 repülőtéren (METAR és TAF jelentéseket).

A térképen piros és sárga pontok jelzik az elérhető meteorológiai állomásokat.

Mozgassa az egeret a pont fölött, hogy megjelenjen az állomás neve.

Azután kattintson az időjárási megfigyelések és előrejelzések megtekintéséhez.

A térkép megváltoztatása: kattintson a fekete keresztel jelölt zöld gombra ráközelítéshez, a vonallal jelölt zöld gombra távolításhoz, vagy a zöld nyilakra a szomszédos térképek eléréséhez.


METAR-TAF: